KTXK/TXK METAR and TAF weather

Enter ICAO airport designator
Station Type Date Time Source
KTXK METAR 2020/02/26 08:53 UTC NOAA

KTXK 260853Z AUTO 29007KT 10SM FEW065 BKN080 07/01 A3009 RMK AO2 SLP188 T00720006 50004


Station Type Date Time Source
KTXK Decoded METAR 2020/02/26 08:53 UTC NOAA

TEXARKANA RGNL WEBB FIELD, AR, United States (KTXK) 33-27N 093-59W 111M
Feb 26, 2020 - 03:53 AM EST / 2020.02.26 0853 UTC
Wind: from the WNW (290 degrees) at 8 MPH (7 KT):0
Visibility: 10 mile(s):0
Sky conditions: mostly cloudy
Temperature: 45.0 F (7.2 C)
Dew Point: 33.1 F (0.6 C)
Relative Humidity: 62%
Pressure (altimeter): 30.09 in. Hg (1018 hPa)
Pressure tendency: 0.01 inches (0.4 hPa) higher than three hours ago
ob: KTXK 260853Z AUTO 29007KT 10SM FEW065 BKN080 07/01 A3009 RMK AO2 SLP188 T00720006 50004
cycle: 9

Station Type Date Time Source
KTXK TAF 2020/02/26 06:42 UTC NOAA

TAF KTXK 260540Z 2606/2706 32005KT P6SM FEW070
FM261000 30014G20KT P6SM VCSH BKN025
FM261800 32016G24KT P6SM OVC035
FM270000 31006KT P6SM SKC

Example: see airport list